createdAt,value
2022-09-05T00:02:33.969Z,100012.31
2022-09-05T00:05:36.405Z,100021.13
2022-09-05T00:08:44.076Z,99990.75
2022-09-05T00:11:40.810Z,99999.13
2022-09-05T00:15:14.533Z,99996.34
2022-09-05T00:19:05.217Z,99980.38
2022-09-05T00:24:28.428Z,99969.22
2022-09-05T00:24:50.245Z,99962.88
2022-09-05T00:27:30.417Z,99975.63
2022-09-05T00:31:50.727Z,99990.81
2022-09-05T00:33:16.279Z,99996.00
2022-09-05T00:36:03.239Z,99985.22
2022-09-05T00:39:06.594Z,99998.81
2022-09-05T00:42:00.034Z,100011.97
2022-09-05T00:49:13.662Z,100019.56
2022-09-05T00:52:07.072Z,100015.56
2022-09-05T00:55:23.436Z,100014.75
2022-09-05T00:58:35.264Z,100011.59
2022-09-05T01:01:37.629Z,100004.00
2022-09-05T01:04:27.701Z,100008.00
2022-09-05T01:07:39.137Z,100002.03
2022-09-05T01:11:00.407Z,99995.22
2022-09-05T01:14:05.499Z,99993.66
2022-09-05T01:17:32.625Z,99984.47
2022-09-05T01:20:44.052Z,99982.88
2022-09-05T01:23:49.101Z,99978.88
2022-09-05T01:27:05.102Z,99997.25
2022-09-05T01:30:07.385Z,99989.28
2022-09-05T01:33:26.481Z,99993.25
2022-09-05T01:36:26.277Z,99998.84
2022-09-05T01:40:11.851Z,99998.44
2022-09-05T01:42:58.644Z,100006.81
2022-09-05T01:45:51.020Z,100007.63
2022-09-05T01:49:02.862Z,100010.41
2022-09-05T01:52:01.718Z,100028.34
2022-09-05T01:56:05.043Z,100047.13
2022-09-05T01:59:10.003Z,100049.09
2022-09-05T02:02:34.393Z,100051.09
2022-09-05T02:05:47.730Z,100050.69
2022-09-05T02:08:51.928Z,100051.88
2022-09-05T02:11:38.905Z,100055.06
2022-09-05T02:14:44.067Z,100076.16
2022-09-05T02:17:49.634Z,100074.56
2022-09-05T02:20:41.405Z,100085.72
2022-09-05T02:23:44.269Z,100096.06
2022-09-05T02:27:07.179Z,100120.75
2022-09-05T02:30:23.354Z,100127.09
2022-09-05T02:33:26.248Z,100159.72
2022-09-05T02:36:45.559Z,100154.97
2022-09-05T02:45:01.648Z,100150.97
2022-09-05T02:45:14.495Z,100162.09
2022-09-05T02:46:31.289Z,100173.63
2022-09-05T02:52:24.702Z,100189.94
2022-09-05T02:57:29.159Z,100190.72
2022-09-05T06:53:22.115Z,100429.47
2022-09-05T06:56:28.960Z,100443.50
2022-09-05T07:07:35.224Z,100442.84
2022-09-05T07:14:10.555Z,100435.84
2022-09-05T07:16:47.793Z,100438.34
2022-09-05T07:19:55.731Z,100434.81
2022-09-05T07:26:42.050Z,100430.66
2022-09-05T07:29:09.733Z,100433.97
2022-09-05T07:31:38.983Z,100426.84
2022-09-05T07:34:21.276Z,100429.34
2022-09-05T07:37:13.829Z,100433.34
2022-09-05T07:40:00.755Z,100434.22
2022-09-05T07:46:34.111Z,100441.50
2022-09-05T07:49:14.698Z,100448.28
2022-09-05T07:56:47.922Z,100455.88
2022-09-05T07:57:06.014Z,100455.13
2022-09-05T07:58:51.849Z,100464.75
2022-09-05T08:01:42.822Z,100467.19
2022-09-05T08:04:35.908Z,100465.75
2022-09-05T08:07:47.674Z,100480.28
2022-09-05T08:11:03.028Z,100480.38
2022-09-05T08:22:06.658Z,100475.09
2022-09-05T08:25:18.076Z,100475.97
2022-09-05T08:28:20.886Z,100488.81
2022-09-05T08:31:19.357Z,100484.13
2022-09-05T08:34:13.540Z,100469.91
2022-09-05T08:37:08.638Z,100487.97
2022-09-05T08:40:58.808Z,100493.28
2022-09-05T08:46:37.182Z,100473.78
2022-09-05T08:48:02.468Z,100472.19
2022-09-05T09:00:20.699Z,100475.72
2022-09-05T09:03:13.174Z,100470.13
2022-09-05T09:06:14.457Z,100463.44
2022-09-05T09:09:05.976Z,100474.31
2022-09-05T09:11:41.814Z,100474.19
2022-09-05T09:14:45.309Z,100480.38
2022-09-05T09:21:34.469Z,100470.88
2022-09-05T09:24:18.258Z,100457.63
2022-09-05T09:26:57.536Z,100466.91
2022-09-05T09:29:25.681Z,100463.66
2022-09-05T09:36:20.121Z,100466.13
2022-09-05T09:39:38.835Z,100445.13
2022-09-05T09:42:37.454Z,100450.47
2022-09-05T09:53:48.115Z,100453.41
2022-09-05T10:01:35.866Z,100457.00
2022-09-05T10:10:40.167Z,100444.63
2022-09-05T10:10:44.491Z,100435.59
2022-09-05T10:11:55.605Z,100439.22
2022-09-05T10:15:30.872Z,100440.41
2022-09-05T10:18:26.893Z,100426.22
2022-09-05T10:21:25.033Z,100420.28
2022-09-05T10:24:39.167Z,100423.28
2022-09-05T10:27:52.693Z,100426.34
2022-09-05T10:33:56.981Z,100436.84
2022-09-05T10:35:23.310Z,100431.81
2022-09-05T10:37:43.570Z,100426.16
2022-09-05T10:40:36.286Z,100428.69
2022-09-05T10:43:49.268Z,100432.66
2022-09-05T10:46:51.507Z,100426.84
2022-09-05T10:49:44.353Z,100416.31
2022-09-05T10:53:02.732Z,100413.72
2022-09-05T10:55:59.427Z,100411.53
2022-09-05T11:01:37.539Z,100407.31
2022-09-05T11:02:33.593Z,100407.91
2022-09-05T11:05:36.321Z,100407.25
2022-09-05T11:08:33.108Z,100398.25
2022-09-05T11:15:52.884Z,100380.22
2022-09-05T11:19:14.101Z,100376.16
2022-09-05T11:26:15.315Z,100365.44
2022-09-05T11:29:13.031Z,100361.53
2022-09-05T11:35:37.172Z,100358.81
2022-09-05T11:39:51.718Z,100358.09
2022-09-05T11:42:53.422Z,100342.13
2022-09-05T11:49:58.077Z,100359.81
2022-09-05T11:53:12.683Z,100361.38
2022-09-05T11:56:13.293Z,100358.09
2022-09-05T11:59:09.147Z,100366.50
2022-09-05T12:02:23.412Z,100365.34
2022-09-05T12:05:47.790Z,100371.03
2022-09-05T12:08:33.208Z,100357.44
2022-09-05T12:11:35.938Z,100353.38
2022-09-05T12:14:44.149Z,100364.94
2022-09-05T12:18:24.161Z,100362.53
2022-09-05T12:21:31.884Z,100362.91
2022-09-05T12:25:26.998Z,100372.16
2022-09-05T12:29:29.515Z,100355.66
2022-09-05T12:32:52.377Z,100361.16
2022-09-05T12:41:33.806Z,100361.34
2022-09-05T12:44:38.459Z,100344.78
2022-09-05T12:46:57.432Z,100341.50
2022-09-05T12:49:52.067Z,100325.34
2022-09-05T12:52:46.740Z,100325.03
2022-09-05T12:55:47.077Z,100323.41
2022-09-05T13:03:02.402Z,100319.72
2022-09-05T13:03:08.112Z,100329.13
2022-09-05T13:05:17.573Z,100332.47
2022-09-05T13:08:10.628Z,100338.63
2022-09-05T13:13:21.498Z,100327.59
2022-09-05T13:14:59.360Z,100334.63
2022-09-05T13:21:27.937Z,100308.72
2022-09-05T13:24:23.214Z,100305.94
2022-09-05T13:27:32.072Z,100296.13
2022-09-05T13:36:42.094Z,100311.22
2022-09-05T13:38:10.165Z,100301.66
2022-09-05T13:38:30.591Z,100299.28
2022-09-05T13:40:28.617Z,100304.91
2022-09-05T13:43:22.560Z,100300.94
2022-09-05T13:46:19.641Z,100294.84
2022-09-05T13:49:37.322Z,100299.25
2022-09-05T13:52:46.174Z,100285.09
2022-09-05T13:55:54.866Z,100282.88
2022-09-05T13:59:19.834Z,100281.00
2022-09-05T14:10:55.247Z,100258.72
2022-09-05T14:22:08.186Z,100235.34
2022-09-05T14:25:02.268Z,100245.16
2022-09-05T14:37:35.409Z,100232.38
2022-09-05T14:37:46.746Z,100227.53
2022-09-05T14:38:54.674Z,100217.88
2022-09-05T14:42:03.666Z,100227.75
2022-09-05T14:45:30.796Z,100213.44
2022-09-05T14:49:08.758Z,100205.50
2022-09-05T14:51:58.450Z,100204.34
2022-09-05T14:55:25.807Z,100202.06
2022-09-05T15:02:41.283Z,100191.78
2022-09-05T15:02:49.360Z,100187.94
2022-09-05T15:11:25.667Z,100186.66
2022-09-05T15:20:30.469Z,100155.97
2022-09-05T15:23:21.099Z,100128.59
2022-09-05T15:26:25.721Z,100133.91
2022-09-05T15:29:14.787Z,100131.56
2022-09-05T15:32:22.614Z,100128.19
2022-09-05T16:10:42.608Z,100090.59
2022-09-05T16:11:15.172Z,100087.94
2022-09-05T16:13:52.804Z,100093.91
2022-09-05T16:22:26.627Z,100089.47
2022-09-05T17:25:05.417Z,100074.75
2022-09-05T17:29:24.830Z,100073.97
2022-09-05T17:29:28.583Z,100071.97
2022-09-05T17:32:13.162Z,100069.16
2022-09-05T17:35:17.274Z,100080.00
2022-09-05T17:38:12.183Z,100060.38
2022-09-05T17:41:13.408Z,100063.19
2022-09-05T17:44:24.170Z,100054.78
2022-09-05T17:47:35.279Z,100064.47
2022-09-05T17:50:28.009Z,100052.75
2022-09-05T17:53:25.088Z,100034.47
2022-09-05T17:56:32.041Z,100028.88
2022-09-05T17:59:23.092Z,100039.69
2022-09-05T18:02:09.998Z,100023.31
2022-09-05T18:04:57.291Z,100016.56
2022-09-05T18:07:58.001Z,100026.56
2022-09-05T18:11:01.451Z,100024.94
2022-09-05T18:13:52.807Z,100020.16
2022-09-05T18:17:35.903Z,100020.16
2022-09-05T18:20:06.477Z,100017.38
2022-09-05T18:23:37.202Z,100028.16
2022-09-05T18:26:27.838Z,100019.78
2022-09-05T18:29:58.410Z,100026.97
2022-09-05T18:32:54.209Z,100024.19
2022-09-05T18:36:00.093Z,100021.75
2022-09-05T18:38:51.222Z,100019.78
2022-09-05T18:41:41.822Z,100030.16
2022-09-05T18:44:36.993Z,100032.16
2022-09-05T18:48:06.171Z,100038.53
2022-09-05T18:51:13.377Z,100040.97
2022-09-05T18:54:20.290Z,100052.53
2022-09-05T18:57:26.819Z,100043.38
2022-09-05T19:00:38.002Z,100061.34
2022-09-05T19:03:35.525Z,100057.75
2022-09-05T19:06:36.020Z,100069.72
2022-09-05T19:09:29.133Z,100073.72
2022-09-05T19:12:35.006Z,100055.31
2022-09-05T19:15:34.275Z,100066.53
2022-09-05T19:18:26.944Z,100048.59
2022-09-05T19:21:19.309Z,100062.56
2022-09-05T19:24:11.463Z,100067.34
2022-09-05T19:29:33.215Z,100059.38
2022-09-05T19:36:57.701Z,100043.41
2022-09-05T19:36:59.598Z,100056.59
2022-09-05T19:37:23.932Z,100046.22
2022-09-05T19:43:31.093Z,100049.03
2022-09-05T19:56:24.545Z,100059.84
2022-09-05T19:59:27.452Z,100064.25
2022-09-05T20:06:54.594Z,100079.00
2022-09-05T20:09:47.268Z,100089.00
2022-09-05T20:12:34.795Z,100100.97
2022-09-05T20:18:52.049Z,100088.19
2022-09-05T20:21:21.454Z,100095.78
2022-09-05T20:23:54.044Z,100092.59
2022-09-05T20:31:10.094Z,100091.38
2022-09-05T20:43:10.357Z,100104.56
2022-09-05T20:43:15.406Z,100100.56
2022-09-05T21:10:27.163Z,100121.69
2022-09-05T21:25:53.313Z,100122.06
2022-09-05T21:37:07.468Z,100119.28
2022-09-05T21:39:59.554Z,100118.91
2022-09-05T21:47:03.525Z,100122.47
2022-09-05T21:47:42.547Z,100128.03
2022-09-05T21:48:24.464Z,100119.66
2022-09-05T21:51:00.444Z,100124.88
2022-09-05T21:57:32.959Z,100122.47
2022-09-05T21:59:27.322Z,100134.84
2022-09-05T21:59:46.520Z,100126.06
2022-09-05T22:06:16.184Z,100127.66
2022-09-05T22:13:03.291Z,100122.47
2022-09-05T22:19:11.483Z,100109.72
2022-09-05T22:21:39.987Z,100109.72
2022-09-05T22:24:09.440Z,100100.53
2022-09-05T22:26:52.097Z,100096.56
2022-09-05T22:29:27.885Z,100094.53
2022-09-05T22:31:54.901Z,100101.72
2022-09-05T22:34:30.192Z,100110.91
2022-09-05T22:37:05.882Z,100113.72
2022-09-05T22:39:53.023Z,100125.69
2022-09-05T22:42:40.205Z,100113.72
2022-09-05T22:45:28.539Z,100104.53
2022-09-05T22:48:15.657Z,100096.53
2022-09-05T22:51:05.057Z,100102.53
2022-09-05T22:53:52.012Z,100110.50
2022-09-05T22:56:39.046Z,100099.75
2022-09-05T22:59:26.097Z,100086.59
2022-09-05T23:02:13.020Z,100086.59
2022-09-05T23:04:39.843Z,100081.78
2022-09-05T23:07:06.535Z,100088.16
2022-09-05T23:09:33.256Z,100092.19
2022-09-05T23:12:00.863Z,100093.78
2022-09-05T23:14:27.555Z,100082.59
2022-09-05T23:16:55.035Z,100085.78
2022-09-05T23:19:21.705Z,100096.94
2022-09-05T23:21:48.524Z,100096.94
2022-09-05T23:24:15.214Z,100096.94
2022-09-05T23:27:02.173Z,100095.38
2022-09-05T23:29:49.439Z,100102.91
2022-09-05T23:32:36.479Z,100095.34
2022-09-05T23:35:23.429Z,100104.09
2022-09-05T23:38:12.284Z,100101.72
2022-09-05T23:41:07.290Z,100108.91
2022-09-05T23:43:54.389Z,100110.91
2022-09-05T23:46:29.178Z,100119.28
2022-09-05T23:48:55.899Z,100110.91
2022-09-05T23:51:28.351Z,100119.28
2022-09-05T23:53:55.203Z,100123.25
2022-09-05T23:56:24.576Z,100119.28
2022-09-05T23:58:51.212Z,100110.91
